Flight Track Log - Related Links

Times and Time Zones

All times are in EDT time to prevent confusion due to time zone crossing. See the EJA922 flight status page for this flight to view local times or setup timezone preferences in your user account.

Time Position Orientation Groundspeed Altitude Reporting Facility
EDT Latitude Longitude Course Direction KTS MPH feet Rate Location/Type
Fri 02:14:03 PM 39.5333 -104.8333 105° East 199 229 7,200  Level Denver TRACON
Fri 02:15:03 PM 39.5167 -104.7500 105° East 279 321 9,600 2,600 Climbing Denver TRACON
Fri 02:16:03 PM 39.5333 -104.6667 75° East 303 349 12,400 3,415 Climbing Denver TRACON
Fri 02:17:06 PM 39.6006 -104.5964 39° Northeast 307 353 16,600 2,784 Climbing Denver Center
Fri 02:18:08 PM 39.6617 -104.5042 49° Northeast 345 397 18,200 1,548 Climbing Denver Center
Fri 02:19:10 PM 39.7206 -104.3781 59° Northeast 383 441 19,800 1,488 Climbing Denver Center
Fri 02:20:13 PM 39.7633 -104.2422 68° East 404 465 21,300 1,344 Climbing Denver Center
Fri 02:21:15 PM 39.8094 -104.0911 68° East 418 481 22,600 1,306 Climbing Denver Center
Fri 02:22:17 PM 39.8533 -103.9456 69° East 430 495 24,000 1,548 Climbing Denver Center
Fri 02:23:19 PM 39.8961 -103.8028 69° East 423 487 25,800 1,548 Climbing Denver Center
Fri 02:24:21 PM 39.9406 -103.6589 68° East 426 490 27,200 1,355 Climbing Denver Center
Fri 02:25:23 PM 39.9844 -103.5089 69° East 439 505 28,600 1,403 Climbing Denver Center
Fri 02:26:25 PM 40.0394 -103.3239 69° East 454 522 30,100 1,355 Climbing Denver Center
Fri 02:27:27 PM 40.0858 -103.1669 69° East 461 531 31,400 1,258 Climbing Denver Center
Fri 02:28:29 PM 40.1328 -103.0081 69° East 467 537 32,700 1,258 Climbing Denver Center
Fri 02:29:31 PM 40.1775 -102.8447 70° East 475 547 34,000 1,306 Climbing Denver Center
Fri 02:30:33 PM 40.2267 -102.6653 70° East 486 559 35,400 1,500 Climbing Denver Center
Fri 02:31:35 PM 40.2769 -102.4786 71° East 488 562 37,100 1,500 Climbing Denver Center
Fri 02:32:37 PM 40.3197 -102.3181 71° East 488 562 38,500 1,296 Climbing Denver Center
Fri 02:33:40 PM 40.3642 -102.1603 70° East 485 558 39,800 1,152 Climbing Denver Center
Fri 02:34:42 PM 40.4128 -101.9758 71° East 479 551 40,900 581 Climbing Denver Center
Fri 02:35:44 PM 40.4558 -101.8178 70° East 481 554 41,000 48 Climbing Denver Center
Fri 02:36:46 PM 40.5061 -101.6297 71° East 487 560 41,000  Level Denver Center
Fri 02:37:48 PM 40.5483 -101.4658 71° East 492 566 41,000  Level Denver Center
Fri 02:38:50 PM 40.5978 -101.2761 71° East 494 568 41,000  Level Denver Center
Fri 02:39:52 PM 40.6397 -101.1131 71° East 493 567 41,000  Level Denver Center
Fri 02:40:54 PM 40.6878 -100.9228 72° East 493 567 41,000  Level Denver Center
Fri 02:41:56 PM 40.7269 -100.7600 72° East 496 571 41,000  Level Denver Center
Fri 02:42:58 PM 40.7781 -100.5706 70° East 504 580 41,000  Level Denver Center
Fri 02:44:00 PM 40.8261 -100.3814 71° East 493 567 41,000  Level Denver Center
Fri 02:45:03 PM 40.8669 -100.2172 72° East 493 567 41,000  Level Denver Center
Fri 02:46:05 PM 40.9142 -100.0267 72° East 491 565 41,000  Level Denver Center
Fri 02:47:07 PM 40.9547 -99.8633 72° East 490 564 41,000  Level Denver Center
Fri 02:48:09 PM 40.9942 -99.7000 72° East 489 563 41,000  Level Denver Center
Fri 02:49:11 PM 41.0442 -99.4936 72° East 490 564 41,000  Level Denver Center
Fri 02:50:13 PM 41.0853 -99.3206 72° East 491 565 41,000  Level Denver Center
Fri 02:51:15 PM 41.1267 -99.1478 72° East 491 565 41,000  Level Denver Center
Fri 02:52:17 PM 41.1647 -98.9850 73° East 491 565 41,000  Level Denver Center
Fri 02:53:19 PM 41.2106 -98.7894 73° East 495 570 41,000  Level Denver Center
Fri 02:54:21 PM 41.2536 -98.6089 72° East 500 575 41,000  Level Denver Center
Fri 02:55:23 PM 41.2933 -98.4339 73° East 494 568 41,000  Level Denver Center
Fri 02:56:44 PM 41.3492 -98.1894 73° East 493 567 41,000  Level Minneapolis Center
Fri 02:57:46 PM 41.3897 -98.0108 73° East 491 565 41,000  Level Minneapolis Center
Fri 02:58:48 PM 41.4292 -97.8358 73° East 493 567 41,000  Level Minneapolis Center
Fri 02:59:55 PM 41.4675 -97.6606 74° East 493 567 41,000  Level Minneapolis Center
Fri 03:00:57 PM 41.5153 -97.4492 73° East 495 570 41,000  Level Minneapolis Center
Fri 03:01:59 PM 41.5550 -97.2717 73° East 497 572 41,000  Level Minneapolis Center
Fri 03:03:01 PM 41.5919 -97.0928 75° East 499 574 41,000  Level Minneapolis Center
Fri 03:04:03 PM 41.6311 -96.9131 74° East 502 578 41,000  Level Minneapolis Center
Fri 03:05:05 PM 41.6706 -96.7333 74° East 503 579 41,000  Level Minneapolis Center
Fri 03:06:07 PM 41.7072 -96.5531 75° East 501 577 41,000  Level Minneapolis Center
Fri 03:07:09 PM 41.7453 -96.3733 74° East 499 574 41,000  Level Minneapolis Center
Fri 03:08:12 PM 41.7906 -96.1567 74° East 499 574 41,000  Level Minneapolis Center
Fri 03:09:14 PM 41.8272 -95.9750 75° East 500 575 41,000  Level Minneapolis Center
Fri 03:10:16 PM 41.8639 -95.7917 75° East 504 580 41,000  Level Minneapolis Center
Fri 03:11:18 PM 41.9006 -95.6103 75° East 502 578 41,000  Level Minneapolis Center
Fri 03:12:20 PM 41.9372 -95.4278 75° East 504 580 41,000  Level Minneapolis Center
Fri 03:13:22 PM 41.9736 -95.2475 75° East 501 577 41,000  Level Minneapolis Center
Fri 03:14:24 PM 42.0083 -95.0656 76° East 502 578 41,000  Level Minneapolis Center
Fri 03:15:26 PM 42.0444 -94.8811 75° East 508 585 41,000  Level Minneapolis Center
Fri 03:16:28 PM 42.0864 -94.6617 75° East 506 582 41,000  Level Minneapolis Center
Fri 03:17:30 PM 42.1214 -94.4775 76° East 507 583 41,000  Level Minneapolis Center
Fri 03:18:32 PM 42.1567 -94.2944 75° East 505 581 41,000  Level Minneapolis Center
Fri 03:19:35 PM 42.1908 -94.1103 76° East 506 582 41,000  Level Minneapolis Center
Fri 03:20:37 PM 42.2294 -93.9067 76° East 507 583 41,000  Level Minneapolis Center
Fri 03:21:39 PM 42.2633 -93.7206 76° East 513 590 41,000  Level Minneapolis Center
Fri 03:22:41 PM 42.2969 -93.5361 76° East 512 589 41,000  Level Minneapolis Center
Fri 03:23:43 PM 42.3294 -93.3511 77° East 512 589 41,000  Level Minneapolis Center
Fri 03:24:45 PM 42.3711 -93.1294 76° East 511 588 41,000  Level Minneapolis Center
Fri 03:25:47 PM 42.4033 -92.9450 77° East 510 587 41,000  Level Minneapolis Center
Fri 03:26:49 PM 42.4367 -92.7589 76° East 511 588 41,000  Level Minneapolis Center
Fri 03:27:51 PM 42.4681 -92.5722 77° East 514 592 41,000  Level Minneapolis Center
Fri 03:28:53 PM 42.4994 -92.3878 77° East 510 587 41,000  Level Minneapolis Center
Fri 03:29:56 PM 42.5369 -92.1656 77° East 510 587 41,000  Level Minneapolis Center
Fri 03:30:58 PM 42.5683 -91.9803 77° East 510 587 41,000  Level Minneapolis Center
Fri 03:32:00 PM 42.5992 -91.7947 77° East 512 589 41,000  Level Minneapolis Center
Fri 03:33:02 PM 42.6283 -91.6111 78° East 513 590 41,000  Level Minneapolis Center
Fri 03:34:04 PM 42.6633 -91.3886 78° East 519 597 41,000  Level Minneapolis Center
Fri 03:35:06 PM 42.6931 -91.2039 78° East 514 592 41,000  Level Minneapolis Center
Fri 03:36:08 PM 42.7222 -91.0161 78° East 514 592 41,000  Level Minneapolis Center
Fri 03:37:10 PM 42.7572 -90.7894 78° East 517 595 41,000  Level Minneapolis Center
Fri 03:38:12 PM 42.7861 -90.5997 78° East 518 596 41,000  Level Minneapolis Center
Fri 03:39:14 PM 42.8142 -90.4083 79° East 520 598 41,000  Level Minneapolis Center
Fri 03:40:17 PM 42.8458 -90.2106 78° East 518 596 41,000  Level Minneapolis Center
Fri 03:41:19 PM 42.8772 -90.0200 77° East 515 593 41,000  Level Minneapolis Center
Fri 03:42:48 PM 42.9169 -89.7314 79° East 514 592 41,000  Level Chicago Center
Fri 03:43:50 PM 42.9297 -89.5364 85° East 516 594 41,000  Level Chicago Center
Fri 03:44:52 PM 42.9214 -89.3067 93° East 519 597 41,000  Level Chicago Center
Fri 03:45:54 PM 42.9169 -89.1094 92° East 520 598 41,000  Level Chicago Center
Fri 03:46:56 PM 42.9114 -88.9131 92° East 521 600 41,000 -242 Level Chicago Center
Fri 03:47:58 PM 42.9058 -88.7186 92° East 517 595 40,500 -968 Descending Chicago Center
Fri 03:49:00 PM 42.8994 -88.5253 93° East 514 592 39,000 -1,824 Descending Chicago Center
Fri 03:50:03 PM 42.8931 -88.2986 92° East 517 595 36,700 -2,064 Descending Chicago Center
Fri 03:51:05 PM 42.8861 -88.1011 93° East 522 601 34,700 -1,694 Descending Chicago Center
Fri 03:52:07 PM 42.8794 -87.9017 93° East 526 605 33,200 -823 Descending Chicago Center
Fri 03:53:09 PM 42.8714 -87.6981 93° East 534 615 33,000 -97 Descending Chicago Center
Fri 03:54:11 PM 42.8619 -87.4550 93° East 550 633 33,000  Level Chicago Center
Fri 03:55:13 PM 42.8544 -87.2650 93° East 550 633 33,000  Level Chicago Center
Fri 03:56:15 PM 42.8444 -87.0564 94° East 554 638 33,000  Level Chicago Center
Fri 03:57:17 PM 42.8367 -86.8478 93° East 554 638 33,000  Level Chicago Center
Fri 03:58:19 PM 42.8247 -86.5969 94° East 556 640 33,000 -242 Level Chicago Center
Fri 03:59:21 PM 42.8142 -86.3894 94° East 555 639 32,500 -823 Descending Chicago Center
Fri 04:00:23 PM 42.8033 -86.1847 94° East 551 634 31,300 -1,536 Descending Chicago Center
Fri 04:01:26 PM 42.7922 -85.9806 94° East 552 635 29,300 -2,112 Descending Chicago Center
Fri 04:02:28 PM 42.7797 -85.7414 94° East 542 624 26,900 -2,129 Descending Chicago Center
Fri 04:03:30 PM 42.7697 -85.5489 94° East 524 603 24,900 -1,935 Descending Chicago Center
Fri 04:04:32 PM 42.7592 -85.3619 94° East 506 582 22,900 -1,839 Descending Chicago Center
Fri 04:05:34 PM 42.7481 -85.1803 95° East 489 563 21,100 -919 Descending Chicago Center
Fri 04:06:36 PM 42.7378 -85.0031 94° East 475 547 21,000 -871 Descending Chicago Center
Fri 04:07:38 PM 42.7244 -84.7978 95° East 457 526 19,300 -2,081 Descending Chicago Center
Fri 04:08:40 PM 42.7161 -84.6339 94° East 438 504 16,700 -2,613 Descending Chicago Center
Fri 04:09:42 PM 42.7150 -84.4739 90° East 426 490 13,900 -2,177 Descending Chicago Center
Fri 04:10:44 PM 42.7131 -84.3286 91° East 391 450 12,200 -1,714 Descending Chicago Center
Fri 04:11:20 PM 42.7103 -84.2483 93° East 366 421 11,100 -1,625 Descending Cleveland Center
Fri 04:12:20 PM 42.7114 -84.1467 89° East 315 362 9,600 -1,600 Descending Cleveland Center
Fri 04:13:20 PM 42.7189 -84.0397 85° East 279 321 7,900 -1,300 Descending Cleveland Center
Fri 04:14:20 PM 42.7258 -83.9411 84° East 269 310 7,000 -450 Descending Cleveland Center
Fri 04:15:20 PM 42.7331 -83.8397 84° East 269 310 7,000  Level Cleveland Center
Fri 04:16:20 PM 42.7422 -83.7383 83° East 269 310 7,000  Level Cleveland Center
Fri 04:17:20 PM 42.7514 -83.6286 83° East 269 310 7,000 -361 Level Cleveland Center
Fri 04:18:33 PM 42.7606 -83.5103 84° East 257 296 6,200 -1,243 Descending Cleveland Center
Fri 04:19:40 PM 42.7214 -83.4122 119° Southeast 271 312 4,100 -1,082 Descending Cleveland Center
Fri 04:20:35 PM 42.6794 -83.3342 126° Southeast 268 308 4,000 -52 Descending Cleveland Center
Fri 04:21:36 PM 42.6378 -83.2503 124° Southeast 267 307 4,000 -233 Level Cleveland Center
Fri 04:22:44 PM 42.5747 -83.1772 140° Southeast 261 300 3,500 -465 Descending Cleveland Center
Fri 04:23:45 PM 42.5197 -83.1242 145° Southeast 208 239 3,000 -569 Descending Cleveland Center
Fri 04:24:40 PM 42.4850 -83.0833 139° Southeast 161 185 2,400 -724 Descending Cleveland Center
Fri 04:25:41 PM 42.4544 -83.0569 147° Southeast 127 146 1,600 -787 Descending Cleveland Center
Fri 04:26:42 PM 42.4239 -83.0247 142° Southeast 124 143 800 -787 Descending Cleveland Center

Login

Don't have an account? Register now (free) for customized features, flight alerts, and more!